Time;durP1;ratioP1;P1;durP2;ratioP2;P2;SDS_P1;SDS_P2;PMS_P1;PMS_P2;Temp;Humidity;BMP_temperature;BMP_pressure;BME280_temperature;BME280_humidity;BME280_pressure;Samples;Min_cycle;Max_cycle;Signal;HPM_P1;HPM_P2
2021/04/03 00:00:10;;;;;;;35.35;20.23;;;;;;;;;;4996271;28;20065;-70
2021/04/03 00:02:36;;;;;;;33.58;20.33;;;;;;;;;;4996338;28;20034;-71
2021/04/03 00:05:04;;;;;;;32.30;19.67;;;;;;;;;;4996220;28;20507;-71
2021/04/03 00:07:30;;;;;;;37.65;21.58;;;;;;;;;;4996165;28;20037;-70
2021/04/03 00:09:56;;;;;;;33.17;17.10;;;;;;;;;;4996226;28;20026;-70
2021/04/03 00:12:22;;;;;;;30.48;17.38;;;;;;;;;;4996016;28;20068;-71
2021/04/03 00:14:48;;;;;;;26.83;17.13;;;;;;;;;;4996154;28;20030;-70
2021/04/03 00:17:14;;;;;;;27.67;17.10;;;;;;;;;;4995719;28;20042;-71
2021/04/03 00:19:40;;;;;;;31.45;19.90;;;409.90;1715.20;;;;;;4995917;28;20156;-70
2021/04/03 00:22:06;;;;;;;42.03;24.85;;;409.70;1715.20;;;;;;4996039;28;20112;-70
2021/04/03 00:24:31;;;;;;;33.20;20.45;;;409.90;1740.80;;;;;;4995747;28;20035;-71
2021/04/03 00:26:57;;;;;;;26.25;16.65;;;409.60;1740.80;;;;;;4996074;28;20038;-71
2021/04/03 00:29:23;;;;;;;22.98;14.77;;;384.50;1792.00;;;;;;4978127;28;20031;-71
2021/04/03 00:31:48;;;;;;;24.27;14.55;;;384.30;1792.00;;;;;;4995874;28;20023;-71
2021/04/03 00:34:15;;;;;;;23.35;13.63;;;;;;;;;;4995470;28;20026;-72
2021/04/03 00:36:41;;;;;;;29.02;15.18;;;;;;;;;;4995807;28;20503;-71
2021/04/03 00:39:07;;;;;;;51.40;27.80;;;;;;;;;;4995313;28;20026;-71
2021/04/03 00:41:33;;;;;;;27.27;16.73;;;384.60;1792.00;;;;;;4995746;28;20465;-71
2021/04/03 00:43:59;;;;;;;31.85;19.17;;;384.40;1792.00;;;;;;4977769;28;20108;-71
2021/04/03 00:46:25;;;;;;;28.30;15.63;;;384.30;1817.60;;;;;;4995725;28;20026;-71
2021/04/03 00:48:51;;;;;;;35.55;17.17;;;384.20;1817.60;;;;;;4995547;28;20061;-71
2021/04/03 00:51:17;;;;;;;25.92;15.88;;;384.30;1817.60;;;;;;4995393;28;20446;-70
2021/04/03 00:53:43;;;;;;;20.73;13.57;;;384.70;1766.40;;;;;;4981727;28;20101;-70
2021/04/03 00:56:09;;;;;;;25.08;14.07;;;384.60;1792.00;;;;;;4995386;28;20037;-71
2021/04/03 00:58:35;;;;;;;21.60;13.95;;;384.70;1792.00;;;;;;4995321;28;20503;-71
2021/04/03 01:01:03;;;;;;;25.00;14.52;;;384.70;1817.60;;;;;;4995181;28;20425;-70
2021/04/03 01:03:29;;;;;;;20.52;13.80;;;384.60;1843.20;;;;;;4995127;28;20136;-70
2021/04/03 01:05:55;;;;;;;22.20;13.52;;;384.30;1868.80;;;;;;4995172;28;20077;-70
2021/04/03 01:08:21;;;;;;;25.15;14.40;;;384.30;1894.40;;;;;;4995142;28;20084;-70
2021/04/03 01:10:51;;;;;;;26.75;14.63;;;;;;;;;;4995014;28;20061;-70
2021/04/03 01:13:29;;;;;;;18.92;13.65;;;;;;;;;;4995130;28;20124;-71
2021/04/03 01:16:01;;;;;;;22.85;13.52;;;;;;;;;;4994618;28;20053;-71
2021/04/03 01:18:41;;;;;;;23.65;13.98;;;;;;;;;;4994894;28;20091;-71
2021/04/03 01:21:22;;;;;;;22.27;14.23;;;;;;;;;;4995020;28;20363;-71
2021/04/03 01:23:54;;;;;;;40.45;19.73;;;384.50;1894.40;;;;;;4994895;28;20490;-71
2021/04/03 01:26:32;;;;;;;24.00;14.52;;;384.30;1920.00;;;;;;4994852;28;20038;-70
2021/04/03 01:29:08;;;;;;;31.95;15.10;;;384.20;1920.00;;;;;;4994973;28;20049;-70
2021/04/03 01:31:36;;;;;;;20.50;13.80;;;384.20;1945.60;;;;;;4994788;28;20081;-70
2021/04/03 01:34:02;;;;;;;28.40;15.50;;;384.30;1920.00;;;;;;4994723;28;20046;-70
2021/04/03 01:36:33;;;;;;;25.98;14.82;;;384.10;1945.60;;;;;;4994643;28;20030;-70
2021/04/03 01:39:14;;;;;;;25.20;15.95;;;384.00;1945.60;;;;;;4994623;28;20034;-71
2021/04/03 01:41:44;;;;;;;28.52;16.40;;;359.30;1996.80;;;;;;4977241;28;20029;-71
2021/04/03 01:44:15;;;;;;;30.83;15.80;;;359.20;2022.40;;;;;;4994464;28;20444;-71
2021/04/03 01:46:42;;;;;;;22.58;16.25;;;384.00;1996.80;;;;;;4994297;28;20109;-70
2021/04/03 01:49:11;;;;;;;29.65;17.20;;;359.30;2022.40;;;;;;4993806;28;20030;-70
2021/04/03 01:51:39;;;;;;;54.80;25.70;;;359.30;2048.00;;;;;;4994394;28;20034;-71
2021/04/03 01:54:09;;;;;;;31.17;18.58;;;384.40;2022.40;;;;;;4987382;28;20508;-69
2021/04/03 01:56:36;;;;;;;32.20;18.38;;;384.40;1996.80;;;;;;4988178;28;20389;-71
2021/04/03 01:59:02;;;;;;;47.55;24.77;;;384.50;1996.80;;;;;;4993923;28;20022;-71
2021/04/03 02:01:28;;;;;;;44.50;25.52;;;384.70;1996.80;;;;;;4994319;28;20088;-71
2021/04/03 02:03:57;;;;;;;43.50;24.23;;;384.90;2022.40;;;;;;4993948;28;20022;-72
2021/04/03 02:06:23;;;;;;;106.63;47.40;;;384.80;1945.60;;;;;;4994209;28;20105;-71
2021/04/03 02:08:50;;;;;;;75.88;37.08;;;384.70;1971.20;;;;;;4993799;28;20064;-71
2021/04/03 02:11:16;;;;;;;56.08;28.42;;;384.70;2048.00;;;;;;4994162;28;20026;-71
2021/04/03 02:13:42;;;;;;;40.20;23.45;;;384.80;1971.20;;;;;;4993959;28;20499;-71
2021/04/03 02:16:08;;;;;;;59.45;32.05;;;384.90;1945.60;;;;;;4993628;28;20124;-72
2021/04/03 02:18:37;;;;;;;48.72;27.02;;;409.60;1996.80;;;;;;4994043;28;20113;-72
2021/04/03 02:21:04;;;;;;;44.42;26.15;;;409.60;1843.20;;;;;;4994244;28;20022;-71
2021/04/03 02:23:35;;;;;;;47.50;27.30;;;409.60;1868.80;;;;;;4993515;28;20481;-71
2021/04/03 02:26:03;;;;;;;40.58;25.48;;;409.70;1868.80;;;;;;4979858;28;20018;-71
2021/04/03 02:28:29;;;;;;;41.60;23.98;;;409.60;1843.20;;;;;;4993944;28;20540;-71
2021/04/03 02:30:55;;;;;;;39.42;23.67;;;384.90;1766.40;;;;;;4993490;28;20018;-71
2021/04/03 02:33:22;;;;;;;38.92;25.05;;;384.90;1792.00;;;;;;4993555;28;20037;-71
2021/04/03 02:35:48;;;;;;;40.05;24.63;;;384.70;1817.60;;;;;;4993868;28;20546;-71
2021/04/03 02:38:15;;;;;;;41.00;24.83;;;384.90;1817.60;;;;;;4994005;28;20014;-71
2021/04/03 02:40:41;;;;;;;38.20;26.00;;;409.60;1868.80;;;;;;4993464;28;20466;-72
2021/04/03 02:43:22;;;;;;;41.00;23.92;;;409.60;1894.40;;;;;;4993143;28;20041;-71
2021/04/03 02:46:13;;;;;;;35.80;22.98;;;409.70;1868.80;;;;;;4993333;28;20025;-71
2021/04/03 02:48:42;;;;;;;40.17;27.45;;;409.60;1894.40;;;;;;4993136;28;20077;-71
2021/04/03 02:51:10;;;;;;;51.22;35.00;;;409.60;1868.80;;;;;;4993413;28;20479;-71
2021/04/03 02:53:37;;;;;;;43.58;28.35;;;409.60;1894.40;;;;;;4993164;28;20026;-71
2021/04/03 02:56:06;;;;;;;39.60;25.73;;;384.90;1817.60;;;;;;4993137;28;20495;-71
2021/04/03 02:58:35;;;;;;;36.70;24.10;;;384.90;1817.60;;;;;;4993150;28;20026;-71
2021/04/03 03:01:03;;;;;;;41.92;26.90;;;384.90;1817.60;;;;;;4993050;28;20018;-71
2021/04/03 03:03:32;;;;;;;39.08;25.98;;;384.70;1868.80;;;;;;4975591;28;20105;-71
2021/04/03 03:06:00;;;;;;;42.72;26.77;;;384.80;1894.40;;;;;;4993135;28;20022;-70
2021/04/03 03:08:28;;;;;;;39.42;26.77;;;384.50;1920.00;;;;;;4993477;28;20046;-70
2021/04/03 03:10:55;;;;;;;48.50;30.95;;;384.60;1894.40;;;;;;4993022;28;20019;-71
2021/04/03 03:13:21;;;;;;;56.05;34.60;;;384.60;1868.80;;;;;;4992962;28;20046;-70
2021/04/03 03:15:48;;;;;;;52.17;35.13;;;384.60;1894.40;;;;;;4978987;28;20030;-70
2021/04/03 03:18:17;;;;;;;40.83;28.98;;;384.70;1920.00;;;;;;4992809;28;20022;-71
2021/04/03 03:20:43;;;;;;;38.13;25.90;;;384.80;1920.00;;;;;;4992901;28;20109;-70
2021/04/03 03:23:11;;;;;;;58.67;33.65;;;384.70;1894.40;;;;;;4992921;28;20193;-70
2021/04/03 03:25:39;;;;;;;42.40;27.23;;;384.60;1868.80;;;;;;4992800;28;20018;-70
2021/04/03 03:28:05;;;;;;;39.85;27.55;;;384.60;1894.40;;;;;;4993020;28;20524;-71
2021/04/03 03:30:32;;;;;;;42.08;27.42;;;384.40;1920.00;;;;;;4992819;28;20027;-71
2021/04/03 03:32:58;;;;;;;34.10;24.65;;;384.40;1894.40;;;;;;4993208;28;20101;-71
2021/04/03 03:35:24;;;;;;;33.53;24.42;;;384.50;1920.00;;;;;;4992858;28;20114;-71
2021/04/03 03:37:51;;;;;;;35.42;22.70;;;384.30;1971.20;;;;;;4992718;28;20370;-71
2021/04/03 03:40:17;;;;;;;30.08;21.10;;;384.40;1971.20;;;;;;4975529;28;20105;-71
2021/04/03 03:42:44;;;;;;;29.00;21.58;;;384.40;1920.00;;;;;;4992693;28;20118;-71
2021/04/03 03:45:14;;;;;;;32.80;24.08;;;384.40;1945.60;;;;;;4992684;28;20029;-71
2021/04/03 03:47:40;;;;;;;39.63;24.67;;;384.50;1945.60;;;;;;4992691;28;20029;-71
2021/04/03 03:50:08;;;;;;;39.67;27.55;;;384.50;1971.20;;;;;;4992645;28;20018;-71
2021/04/03 03:52:34;;;;;;;40.70;27.35;;;384.30;1971.20;;;;;;4992779;28;20030;-71
2021/04/03 03:55:00;;;;;;;42.08;27.83;;;384.20;1996.80;;;;;;4992568;28;20018;-72
2021/04/03 03:57:25;;;;;;;43.70;30.30;;;384.30;1996.80;;;;;;4993010;28;20038;-72
2021/04/03 03:59:51;;;;;;;38.83;28.25;;;384.40;1996.80;;;;;;4992735;28;20089;-71
2021/04/03 04:02:17;;;;;;;34.50;26.80;;;384.40;1996.80;;;;;;4992376;28;20093;-71
2021/04/03 04:04:43;;;;;;;42.83;28.90;;;384.40;1996.80;;;;;;4992804;28;20117;-71
2021/04/03 04:07:09;;;;;;;41.60;28.00;;;384.30;1971.20;;;;;;4992482;28;20532;-71
2021/04/03 04:09:35;;;;;;;33.45;25.15;;;384.20;2022.40;;;;;;4992652;28;20509;-71
2021/04/03 04:12:05;;;;;;;37.83;24.58;;;384.30;1996.80;;;;;;4992609;28;20031;-71
2021/04/03 04:14:35;;;;;;;38.20;27.10;;;384.30;1971.20;;;;;;4996249;28;20030;-71
2021/04/03 04:17:02;;;;;;;36.35;27.58;;;384.20;1996.80;;;;;;4995099;28;20046;-71
2021/04/03 04:19:27;;;;;;;39.63;28.30;;;384.30;1996.80;;;;;;4993605;28;20058;-71
2021/04/03 04:21:53;;;;;;;41.70;28.70;;;384.30;1971.20;;;;;;4994907;28;20138;-71
2021/04/03 04:24:19;;;;;;;44.88;29.73;;;384.30;1971.20;;;;;;4994660;28;20037;-71
2021/04/03 04:26:45;;;;;;;45.85;31.75;;;359.20;1971.20;;;;;;4995092;28;20038;-72
2021/04/03 04:29:11;;;;;;;44.22;30.23;;;358.90;1996.80;;;;;;4994680;28;20034;-72
2021/04/03 04:31:37;;;;;;;46.35;31.23;;;359.00;2099.20;;;;;;4994508;28;20031;-72
2021/04/03 04:34:03;;;;;;;51.88;36.75;;;358.80;2150.40;;;;;;4994682;28;20026;-72
2021/04/03 04:36:29;;;;;;;43.40;30.67;;;358.90;2201.60;;;;;;4994734;28;20033;-71
2021/04/03 04:38:55;;;;;;;33.67;24.75;;;358.80;2201.60;;;;;;4994658;28;20026;-72
2021/04/03 04:41:20;;;;;;;34.40;25.35;;;359.00;2124.80;;;;;;4976466;28;20045;-71
2021/04/03 04:43:46;;;;;;;41.72;29.27;;;359.10;2099.20;;;;;;4994542;28;20033;-71
2021/04/03 04:46:12;;;;;;;42.00;31.85;;;359.00;2124.80;;;;;;4994504;28;20030;-71
2021/04/03 04:48:38;;;;;;;35.95;26.92;;;359.20;2124.80;;;;;;4994220;28;20018;-70
2021/04/03 04:51:04;;;;;;;37.30;27.00;;;359.20;2073.60;;;;;;4994484;28;20050;-70
2021/04/03 04:53:31;;;;;;;40.83;32.28;;;359.20;2099.20;;;;;;4994182;28;20030;-70
2021/04/03 04:55:57;;;;;;;45.75;34.97;;;359.30;2073.60;;;;;;4994284;28;20028;-71
2021/04/03 04:58:23;;;;;;;38.28;28.67;;;384.20;2073.60;;;;;;4994693;28;20113;-71
2021/04/03 05:00:48;;;;;;;41.97;27.38;;;384.00;2022.40;;;;;;4994679;28;20018;-70
2021/04/03 05:03:14;;;;;;;40.55;28.92;;;359.30;1971.20;;;;;;4994112;28;20038;-70
2021/04/03 05:05:40;;;;;;;39.58;26.08;;;384.00;1945.60;;;;;;4994313;28;20457;-71
2021/04/03 05:08:05;;;;;;;54.55;34.10;;;384.10;1894.40;;;;;;4994098;28;20034;-70
2021/04/03 05:10:31;;;;;;;54.78;36.00;;;384.10;1920.00;;;;;;4994060;28;20058;-70
2021/04/03 05:13:03;;;;;;;51.55;35.05;;;384.10;1894.40;;;;;;4994043;28;20069;-70
2021/04/03 05:15:29;;;;;;;48.85;33.42;;;384.30;1920.00;;;;;;4969074;28;713465;-70
2021/04/03 05:17:55;;;;;;;53.25;34.95;;;384.30;1920.00;;;;;;4994966;28;20030;-71
2021/04/03 05:20:21;;;;;;;52.63;35.22;;;384.00;1920.00;;;;;;4994953;28;20061;-71
2021/04/03 05:22:46;;;;;;;54.13;37.63;;;384.10;1971.20;;;;;;4994784;28;20053;-71
2021/04/03 05:25:12;;;;;;;51.30;33.40;;;384.00;1971.20;;;;;;4993813;28;20018;-71
2021/04/03 05:27:39;;;;;;;46.20;33.92;;;384.00;1971.20;;;;;;4994713;28;20022;-71
2021/04/03 05:30:06;;;;;;;48.15;33.90;;;384.00;1945.60;;;;;;4994339;28;20022;-69
2021/04/03 05:32:32;;;;;;;46.92;33.30;;;384.00;1971.20;;;;;;4979158;28;20034;-70
2021/04/03 05:34:57;;;;;;;53.97;36.33;;;384.10;1945.60;;;;;;4981937;28;20044;-70
2021/04/03 05:37:23;;;;;;;49.60;34.58;;;384.00;1971.20;;;;;;4994072;28;20474;-69
2021/04/03 05:39:49;;;;;;;46.20;32.90;;;384.00;1996.80;;;;;;4993831;28;20022;-69
2021/04/03 05:42:18;;;;;;;45.70;32.88;;;384.00;1996.80;;;;;;4993231;28;20485;-69
2021/04/03 05:44:44;;;;;;;51.03;34.38;;;359.30;2022.40;;;;;;4993750;28;20038;-69
2021/04/03 05:47:10;;;;;;;46.33;33.55;;;384.00;2048.00;;;;;;4993726;28;20015;-69
2021/04/03 05:49:38;;;;;;;43.80;31.33;;;359.30;2073.60;;;;;;4993869;28;20021;-70
2021/04/03 05:52:04;;;;;;;42.08;29.10;;;359.30;2048.00;;;;;;4993571;28;20018;-69
2021/04/03 05:54:30;;;;;;;36.85;26.63;;;359.10;2073.60;;;;;;4994169;28;20026;-69
2021/04/03 05:56:56;;;;;;;49.78;32.15;;;359.10;2073.60;;;;;;4993492;28;20053;-69
2021/04/03 05:59:22;;;;;;;38.45;29.77;;;358.90;2048.00;;;;;;4993652;28;20465;-70
2021/04/03 06:01:48;;;;;;;32.22;23.73;;;358.90;2073.60;;;;;;4993238;28;20424;-69
2021/04/03 06:04:15;;;;;;;43.00;28.58;;;359.00;2048.00;;;;;;4975570;28;20049;-69
2021/04/03 06:06:42;;;;;;;56.92;35.63;;;359.00;2048.00;;;;;;4993525;28;20018;-69
2021/04/03 06:09:07;;;;;;;79.63;50.70;;;358.90;2048.00;;;;;;4993613;28;20063;-69
2021/04/03 06:11:46;;;;;;;51.88;33.38;;;358.80;2048.00;;;;;;4993520;28;20025;-70
2021/04/03 06:14:12;;;;;;;51.22;31.98;;;358.80;2073.60;;;;;;4992830;28;20503;-69
2021/04/03 06:16:45;;;;;;;46.72;31.52;;;358.80;2073.60;;;;;;4992963;28;20046;-69
2021/04/03 06:19:18;;;;;;;40.53;27.05;;;358.80;2022.40;;;;;;4993160;28;20105;-69
2021/04/03 06:21:53;;;;;;;46.97;32.33;;;358.60;2022.40;;;;;;4975317;28;20070;-68
2021/04/03 06:24:34;;;;;;;33.15;22.95;;;358.60;2048.00;;;;;;4993361;28;20045;-68
2021/04/03 06:27:16;;;;;;;28.13;19.85;;;358.60;2022.40;;;;;;4993492;28;20037;-68
2021/04/03 06:29:47;;;;;;;41.22;25.02;;;358.70;2022.40;;;;;;4992755;28;20038;-68
2021/04/03 06:32:22;;;;;;;37.15;26.60;;;358.60;2022.40;;;;;;4975471;28;20405;-67
2021/04/03 06:34:50;;;;;;;40.15;24.88;;;358.50;2022.40;;;;;;4979956;28;20021;-68
2021/04/03 06:37:27;;;;;;;36.58;24.88;;;358.50;2022.40;;;;;;4992872;28;20026;-69
2021/04/03 06:40:00;;;;;;;48.10;30.48;;;358.60;2022.40;;;;;;4971874;28;20030;-70
2021/04/03 06:42:42;;;;;;;66.15;38.65;;;333.70;2150.40;;;;;;4986009;28;20034;-69
2021/04/03 06:45:29;;;;;;;62.67;38.08;;;358.60;2073.60;;;;;;4992775;28;20029;-69
2021/04/03 06:48:03;;;;;;;58.35;36.45;;;358.50;2073.60;;;;;;4992684;28;20038;-70
2021/04/03 06:50:32;;;;;;;35.10;26.83;;;333.70;2150.40;;;;;;4992575;28;20084;-69
2021/04/03 06:53:00;;;;;;;48.45;32.22;;;333.50;2124.80;;;;;;4992637;28;20034;-69
2021/04/03 06:55:27;;;;;;;40.70;27.23;;;333.70;2124.80;;;;;;4992453;28;20031;-69
2021/04/03 06:57:55;;;;;;;101.80;59.60;;;358.40;2150.40;;;;;;4993066;28;20030;-68
2021/04/03 07:00:21;;;;;;;59.28;36.80;;;358.50;2073.60;;;;;;4992937;28;20045;-68
2021/04/03 07:02:52;;;;;;;62.83;39.63;;;358.50;2124.80;;;;;;4992452;28;20026;-70
2021/04/03 07:05:20;;;;;;;49.00;34.92;;;358.50;2124.80;;;;;;4992425;28;20057;-68
2021/04/03 07:07:47;;;;;;;54.55;34.40;;;358.50;2124.80;;;;;;4992861;28;20041;-69
2021/04/03 07:10:14;;;;;;;39.42;28.55;;;358.40;2099.20;;;;;;4992773;28;20117;-69
2021/04/03 07:12:41;;;;;;;47.58;32.03;;;358.50;2124.80;;;;;;4992572;28;20023;-68
2021/04/03 07:15:12;;;;;;;76.75;47.40;;;333.30;2176.00;;;;;;4992422;28;20023;-68
2021/04/03 07:17:43;;;;;;;55.55;34.72;;;333.70;2150.40;;;;;;4991879;28;20038;-68
2021/04/03 07:20:14;;;;;;;55.80;37.00;;;333.40;2176.00;;;;;;4992786;28;20081;-68
2021/04/03 07:22:45;;;;;;;51.17;37.53;;;333.50;2176.00;;;;;;4992515;28;20023;-69
2021/04/03 07:25:12;;;;;;;65.82;43.97;;;333.70;2176.00;;;;;;4992696;28;20311;-69
2021/04/03 07:27:45;;;;;;;40.85;30.45;;;333.70;2150.40;;;;;;4992636;28;20026;-69
2021/04/03 07:30:11;;;;;;;43.35;30.55;;;333.40;2176.00;;;;;;4990537;28;20049;-69
2021/04/03 07:32:40;;;;;;;37.97;27.10;;;333.60;2201.60;;;;;;4992293;28;20497;-69
2021/04/03 07:35:23;;;;;;;38.65;28.00;;;358.40;2124.80;;;;;;4992906;28;20471;-68
2021/04/03 07:37:50;;;;;;;39.47;27.48;;;358.60;2150.40;;;;;;4992737;28;20014;-67
2021/04/03 07:40:25;;;;;;;43.33;27.63;;;358.50;2124.80;;;;;;4992608;28;20046;-67
2021/04/03 07:42:51;;;;;;;44.00;29.70;;;358.60;2124.80;;;;;;4992847;28;20041;-68
2021/04/03 07:45:40;;;;;;;40.15;28.60;;;358.50;2124.80;;;;;;4992298;28;20022;-68
2021/04/03 07:48:14;;;;;;;43.55;29.95;;;358.70;2099.20;;;;;;4994227;28;20080;-68
2021/04/03 07:50:40;;;;;;;44.60;29.90;;;358.80;2150.40;;;;;;4996378;28;20093;-68
2021/04/03 07:53:07;;;;;;;40.17;26.83;;;358.60;2073.60;;;;;;4996578;28;20457;-68
2021/04/03 07:55:43;;;;;;;42.35;27.83;;;358.60;2073.60;;;;;;4996077;28;20026;-70
2021/04/03 07:58:33;;;;;;;35.13;23.35;;;358.50;2099.20;;;;;;4996351;28;20031;-70
2021/04/03 08:01:02;;;;;;;96.00;66.28;;;358.60;2073.60;;;;;;4995984;28;20030;-68
2021/04/03 08:03:29;;;;;;;46.55;32.55;;;358.40;2073.60;;;;;;4995708;28;20042;-69
2021/04/03 08:05:59;;;;;;;30.02;20.40;;;358.40;2099.20;;;;;;4995978;28;20014;-68
2021/04/03 08:08:27;;;;;;;39.78;27.10;;;358.40;2048.00;;;;;;4996210;28;20511;-69
2021/04/03 08:11:16;;;;;;;34.65;24.98;;;358.40;2048.00;;;;;;4995886;28;20068;-69
2021/04/03 08:13:45;;;;;;;29.15;20.23;;;358.50;2073.60;;;;;;4996017;28;20054;-69
2021/04/03 08:16:12;;;;;;;46.90;31.17;;;358.50;2048.00;;;;;;4995661;28;20319;-69
2021/04/03 08:18:40;;;;;;;46.60;31.77;;;358.60;1996.80;;;;;;4995712;28;20027;-68
2021/04/03 08:21:07;;;;;;;52.72;37.15;;;358.60;1971.20;;;;;;4995985;28;20022;-69
2021/04/03 08:23:41;;;;;;;38.72;25.02;;;358.50;1971.20;;;;;;4995956;28;20057;-69
2021/04/03 08:26:08;;;;;;;49.45;33.30;;;358.40;1971.20;;;;;;4995471;28;20019;-70
2021/04/03 08:28:34;;;;;;;40.03;28.00;;;358.50;1971.20;;;;;;4995771;28;20101;-69
2021/04/03 08:31:24;;;;;;;34.53;25.10;;;358.50;1971.20;;;;;;4995381;28;20030;-69
2021/04/03 08:33:52;;;;;;;42.67;29.92;;;333.60;1996.80;;;;;;4995664;28;20014;-70
2021/04/03 08:36:24;;;;;;;45.42;33.25;;;333.00;2099.20;;;;;;4995462;28;20039;-69
2021/04/03 08:38:51;;;;;;;36.13;27.65;;;333.10;2124.80;;;;;;4993837;28;20425;-70
2021/04/03 08:41:28;;;;;;;28.73;19.90;;;333.00;2124.80;;;;;;4978393;28;20386;-69
2021/04/03 08:43:55;;;;;;;35.03;25.48;;;333.10;2073.60;;;;;;4995139;28;20137;-69
2021/04/03 08:46:22;;;;;;;31.00;21.27;;;333.20;2073.60;;;;;;4995002;28;20029;-70
2021/04/03 08:48:58;;;;;;;22.85;17.48;;;333.10;2124.80;;;;;;4977628;28;20108;-69
2021/04/03 08:51:25;;;;;;;20.80;16.80;;;332.90;2150.40;;;;;;4995221;28;20031;-70
2021/04/03 08:53:58;;;;;;;28.08;22.42;;;332.90;2176.00;;;;;;4995025;28;20031;-68
2021/04/03 08:56:28;;;;;;;27.65;22.40;;;332.90;2252.80;;;;;;4994962;28;20381;-72
2021/04/03 08:58:55;;;;;;;27.50;20.02;;;332.90;2227.20;;;;;;4994741;28;20093;-73
2021/04/03 09:01:23;;;;;;;22.42;17.92;;;333.20;2176.00;;;;;;4994789;28;20077;-72
2021/04/03 09:03:53;;;;;;;31.13;22.45;;;333.20;2176.00;;;;;;4991869;28;20504;-72
2021/04/03 09:06:37;;;;;;;66.85;53.53;;;;;;;;;;4984986;28;20497;-71
2021/04/03 09:09:08;;;;;;;36.65;25.33;;;333.50;2099.20;;;;;;4994886;28;20109;-70
2021/04/03 09:11:33;;;;;;;83.28;65.85;;;333.40;2150.40;;;;;;4994784;28;20105;-71
2021/04/03 09:13:59;;;;;;;69.75;57.85;;;333.50;2201.60;;;;;;4994774;28;20516;-72
2021/04/03 09:16:34;;;;;;;77.28;64.38;;;333.70;2150.40;;;;;;4994531;28;20140;-70
2021/04/03 09:19:00;;;;;;;103.00;91.07;;;333.70;2124.80;;;;;;4994639;28;20022;-70
2021/04/03 09:21:26;;;;;;;37.67;26.58;;;358.40;2073.60;;;;;;4994423;28;20034;-71
2021/04/03 09:23:53;;;;;;;45.90;36.13;;;333.30;2124.80;;;;;;4994398;28;20120;-70
2021/04/03 09:26:33;;;;;;;47.60;37.38;;;333.40;2124.80;;;;;;4994467;28;20042;-71
2021/04/03 09:29:10;;;;;;;45.88;33.03;;;333.70;2150.40;;;;;;4994215;28;20026;-72
2021/04/03 09:31:44;;;;;;;49.58;33.83;;;358.40;2099.20;;;;;;4994044;28;20026;-71
2021/04/03 09:34:14;;;;;;;31.65;24.38;;;358.40;2048.00;;;;;;4994146;28;20481;-69
2021/04/03 09:36:48;;;;;;;32.95;25.20;;;358.50;1996.80;;;;;;4993883;28;20495;-70
2021/04/03 09:39:19;;;;;;;35.15;28.40;;;358.70;1996.80;;;;;;4994074;28;20034;-70
2021/04/03 09:41:53;;;;;;;38.35;28.63;;;;;;;;;;4993652;28;20014;-70
2021/04/03 09:44:19;;;;;;;46.67;34.15;;;;;;;;;;4993847;28;20030;-71
2021/04/03 09:46:48;;;;;;;42.40;29.90;;;359.00;1945.60;;;;;;4993811;28;20137;-69
2021/04/03 09:49:16;;;;;;;54.55;38.78;;;358.90;1945.60;;;;;;4993771;28;20503;-70
2021/04/03 09:51:42;;;;;;;59.60;40.47;;;358.70;1971.20;;;;;;4993618;28;20034;-71
2021/04/03 09:54:07;;;;;;;43.65;29.20;;;358.70;2022.40;;;;;;4993847;28;20381;-70
2021/04/03 09:56:33;;;;;;;55.40;36.08;;;358.40;2022.40;;;;;;4993655;28;20027;-70
2021/04/03 09:58:59;;;;;;;41.55;28.92;;;358.50;2022.40;;;;;;4993427;28;20436;-69
2021/04/03 10:01:26;;;;;;;40.67;27.63;;;358.60;2022.40;;;;;;4992897;28;20029;-70
2021/04/03 10:03:56;;;;;;;39.95;28.58;;;333.50;2124.80;;;;;;4993241;28;20027;-71
2021/04/03 10:06:22;;;;;;;53.20;40.90;;;333.30;2176.00;;;;;;4992070;28;20073;-70
2021/04/03 10:08:48;;;;;;;62.10;47.50;;;333.50;2073.60;;;;;;4993244;28;20109;-72
2021/04/03 10:11:17;;;;;;;52.42;38.70;;;333.40;2099.20;;;;;;4992776;28;20098;-70
2021/04/03 10:13:44;;;;;;;65.30;51.53;;;333.50;2073.60;;;;;;4993232;28;20026;-70
2021/04/03 10:16:10;;;;;;;40.58;32.78;;;333.20;2124.80;;;;;;4986243;28;20039;-71
2021/04/03 10:18:36;;;;;;;45.78;34.78;;;333.40;2073.60;;;;;;4986120;28;20045;-70
2021/04/03 10:21:01;;;;;;;45.30;30.10;;;333.30;2099.20;;;;;;4992886;28;20466;-69
2021/04/03 10:23:27;;;;;;;51.22;38.50;;;333.30;2073.60;;;;;;4992782;28;20062;-70
2021/04/03 10:25:53;;;;;;;64.50;46.35;;;333.50;2048.00;;;;;;4992996;28;20392;-69
2021/04/03 10:28:19;;;;;;;50.25;35.53;;;333.70;2048.00;;;;;;4993671;28;20030;-68
2021/04/03 10:30:44;;;;;;;53.53;41.65;;;333.00;2073.60;;;;;;4992880;28;20088;-67
2021/04/03 10:33:10;;;;;;;34.83;28.00;;;333.30;2048.00;;;;;;4993209;28;20497;-67
2021/04/03 10:35:36;;;;;;;34.15;23.90;;;333.30;2048.00;;;;;;4993093;28;20026;-67
2021/04/03 10:38:01;;;;;;;66.85;43.03;;;332.90;2073.60;;;;;;4993173;28;20029;-67
2021/04/03 10:40:27;;;;;;;92.78;64.50;;;333.10;2073.60;;;;;;4993231;28;20022;-70
2021/04/03 10:42:53;;;;;;;43.38;31.17;;;333.10;2073.60;;;;;;4993066;28;20030;-69
2021/04/03 10:45:19;;;;;;;41.28;27.75;;;332.80;2073.60;;;;;;4992879;28;20081;-70
2021/04/03 10:47:45;;;;;;;33.70;25.13;;;333.00;2048.00;;;;;;4992668;28;20033;-71
2021/04/03 10:50:11;;;;;;;55.67;35.53;;;332.90;2073.60;;;;;;4993242;28;20030;-69
2021/04/03 10:52:37;;;;;;;57.35;35.47;;;308.10;2099.20;;;;;;4993043;28;20022;-68
2021/04/03 10:55:03;;;;;;;97.15;68.38;;;333.00;2124.80;;;;;;4992856;28;20385;-69
2021/04/03 10:57:29;;;;;;;41.80;31.23;;;333.20;2099.20;;;;;;4993087;28;20081;-69
2021/04/03 10:59:55;;;;;;;28.02;22.00;;;333.20;1971.20;;;;;;4992778;28;20038;-69
2021/04/03 11:02:20;;;;;;;28.73;21.10;;;333.20;1868.80;;;;;;4992552;28;20113;-69
2021/04/03 11:04:46;;;;;;;38.78;28.50;;;333.40;1920.00;;;;;;4992727;28;20110;-69
2021/04/03 11:07:12;;;;;;;63.30;49.80;;;333.70;1920.00;;;;;;4992443;28;20025;-71
2021/04/03 11:09:38;;;;;;;38.95;27.23;;;333.50;1894.40;;;;;;4992928;28;20022;-71
2021/04/03 11:12:04;;;;;;;57.15;37.95;;;333.70;2227.20;;;;;;4992610;28;20022;-72
2021/04/03 11:14:30;;;;;;;48.25;29.00;;;;;;;;;;4992918;28;20373;-72
2021/04/03 11:16:56;;;;;;;46.10;31.30;;;;;;;;;;4992302;28;20050;-72
2021/04/03 11:19:22;;;;;;;49.60;32.17;;;333.60;1894.40;;;;;;4992517;28;20024;-72
2021/04/03 11:21:47;;;;;;;44.95;30.40;;;333.40;1920.00;;;;;;4991744;28;20385;-73
2021/04/03 11:24:13;;;;;;;44.70;28.98;;;333.60;1945.60;;;;;;4992043;28;20034;-68
2021/04/03 11:26:39;;;;;;;29.23;21.42;;;333.60;1894.40;;;;;;4992489;28;20428;-69
2021/04/03 11:29:05;;;;;;;38.33;29.05;;;333.50;1868.80;;;;;;4992529;28;20037;-69
2021/04/03 11:31:31;;;;;;;31.30;23.52;;;333.60;1868.80;;;;;;4992344;28;20351;-69
2021/04/03 11:33:57;;;;;;;32.78;25.73;;;333.70;1868.80;;;;;;4992381;28;20500;-69
2021/04/03 11:36:23;;;;;;;28.00;20.60;;;333.60;1868.80;;;;;;4992496;28;20053;-69
2021/04/03 11:38:49;;;;;;;46.92;30.20;;;358.40;1920.00;;;;;;4992505;28;20474;-71
2021/04/03 11:41:14;;;;;;;35.05;24.52;;;358.50;1894.40;;;;;;4992461;28;20425;-73
2021/04/03 11:43:40;;;;;;;42.00;28.33;;;333.60;1894.40;;;;;;4992655;28;20041;-73
2021/04/03 11:46:06;;;;;;;49.83;32.95;;;333.70;1945.60;;;;;;4992325;28;20026;-72
2021/04/03 11:48:32;;;;;;;24.80;16.40;;;358.50;1894.40;;;;;;4992247;28;20023;-72
2021/04/03 11:50:57;;;;;;;32.45;20.20;;;333.70;1843.20;;;;;;4983305;28;20065;-70
2021/04/03 11:53:23;;;;;;;31.15;22.58;;;333.70;1868.80;;;;;;4987715;28;20030;-72
2021/04/03 11:55:50;;;;;;;35.65;24.25;;;333.70;1843.20;;;;;;4992247;28;20033;-73
2021/04/03 11:58:16;;;;;;;23.55;18.67;;;333.60;1868.80;;;;;;4992640;28;20031;-73
2021/04/03 12:00:42;;;;;;;30.40;20.48;;;;;;;;;;4991863;28;20121;-73
2021/04/03 12:03:08;;;;;;;31.63;21.20;;;;;;;;;;4991885;28;20085;-70
2021/04/03 12:05:34;;;;;;;24.40;15.52;;;333.60;1792.00;;;;;;4991742;28;20389;-70
2021/04/03 12:08:00;;;;;;;29.95;20.40;;;;;;;;;;4992209;28;20026;-71
2021/04/03 12:10:26;;;;;;;34.10;23.15;;;333.60;2048.00;;;;;;4991954;28;20045;-70
2021/04/03 12:12:52;;;;;;;37.55;21.83;;;333.40;1996.80;;;;;;4992020;28;20018;-73